sensor_id;sensor_type;location;lat;lon;timestamp;temperature;humidity
39815;DHT22;25495;45.948;4.568;2022-07-23T00:01:34;21.50;99.90
39815;DHT22;25495;45.948;4.568;2022-07-23T00:04:00;21.50;99.90
39815;DHT22;25495;45.948;4.568;2022-07-23T00:06:26;21.50;99.90
39815;DHT22;25495;45.948;4.568;2022-07-23T00:08:52;21.50;99.90
39815;DHT22;25495;45.948;4.568;2022-07-23T00:11:18;21.50;99.90
39815;DHT22;25495;45.948;4.568;2022-07-23T00:13:45;21.50;99.90
39815;DHT22;25495;45.948;4.568;2022-07-23T00:16:11;21.40;99.90
39815;DHT22;25495;45.948;4.568;2022-07-23T00:18:36;21.40;99.90
39815;DHT22;25495;45.948;4.568;2022-07-23T00:21:02;21.40;99.90
39815;DHT22;25495;45.948;4.568;2022-07-23T00:23:28;21.40;99.90
39815;DHT22;25495;45.948;4.568;2022-07-23T00:25:55;21.30;99.90
39815;DHT22;25495;45.948;4.568;2022-07-23T00:28:21;21.40;99.90
39815;DHT22;25495;45.948;4.568;2022-07-23T00:30:47;21.40;99.90
39815;DHT22;25495;45.948;4.568;2022-07-23T00:33:13;21.30;99.90
39815;DHT22;25495;45.948;4.568;2022-07-23T00:35:40;21.30;99.90
39815;DHT22;25495;45.948;4.568;2022-07-23T00:38:07;21.40;99.90
39815;DHT22;25495;45.948;4.568;2022-07-23T00:40:35;21.40;99.90
39815;DHT22;25495;45.948;4.568;2022-07-23T00:43:01;21.40;99.90
39815;DHT22;25495;45.948;4.568;2022-07-23T00:45:27;21.40;99.90
39815;DHT22;25495;45.948;4.568;2022-07-23T00:47:53;21.30;99.90
39815;DHT22;25495;45.948;4.568;2022-07-23T00:50:19;21.30;99.90
39815;DHT22;25495;45.948;4.568;2022-07-23T00:52:45;21.30;99.90
39815;DHT22;25495;45.948;4.568;2022-07-23T00:55:12;21.20;99.90
39815;DHT22;25495;45.948;4.568;2022-07-23T00:57:40;21.20;99.90
39815;DHT22;25495;45.948;4.568;2022-07-23T01:00:08;21.20;99.90
39815;DHT22;25495;45.948;4.568;2022-07-23T01:02:35;21.20;99.90
39815;DHT22;25495;45.948;4.568;2022-07-23T01:05:00;21.10;99.90
39815;DHT22;25495;45.948;4.568;2022-07-23T01:07:27;21.10;99.90
39815;DHT22;25495;45.948;4.568;2022-07-23T01:09:54;21.10;99.90
39815;DHT22;25495;45.948;4.568;2022-07-23T01:12:20;21.10;99.90
39815;DHT22;25495;45.948;4.568;2022-07-23T01:14:54;21.10;99.90
39815;DHT22;25495;45.948;4.568;2022-07-23T01:17:20;21.00;99.90
39815;DHT22;25495;45.948;4.568;2022-07-23T01:22:12;21.10;99.90
39815;DHT22;25495;45.948;4.568;2022-07-23T01:24:38;21.10;99.90
39815;DHT22;25495;45.948;4.568;2022-07-23T01:27:04;21.00;99.90
39815;DHT22;25495;45.948;4.568;2022-07-23T01:29:31;21.10;99.90
39815;DHT22;25495;45.948;4.568;2022-07-23T01:31:56;21.00;99.90
39815;DHT22;25495;45.948;4.568;2022-07-23T01:34:22;21.00;99.90
39815;DHT22;25495;45.948;4.568;2022-07-23T01:36:48;21.00;99.90
39815;DHT22;25495;45.948;4.568;2022-07-23T01:39:13;21.00;99.90
39815;DHT22;25495;45.948;4.568;2022-07-23T01:41:39;21.00;99.90
39815;DHT22;25495;45.948;4.568;2022-07-23T01:44:06;21.00;99.90
39815;DHT22;25495;45.948;4.568;2022-07-23T01:46:32;20.90;99.90
39815;DHT22;25495;45.948;4.568;2022-07-23T01:48:57;20.90;99.90
39815;DHT22;25495;45.948;4.568;2022-07-23T01:51:23;21.00;99.90
39815;DHT22;25495;45.948;4.568;2022-07-23T01:53:49;20.90;99.90
39815;DHT22;25495;45.948;4.568;2022-07-23T01:56:15;21.00;99.90
39815;DHT22;25495;45.948;4.568;2022-07-23T01:58:40;21.10;99.90
39815;DHT22;25495;45.948;4.568;2022-07-23T02:01:06;21.00;99.90
39815;DHT22;25495;45.948;4.568;2022-07-23T02:03:32;21.00;99.90
39815;DHT22;25495;45.948;4.568;2022-07-23T02:05:58;21.10;99.90
39815;DHT22;25495;45.948;4.568;2022-07-23T02:08:24;21.00;99.90
39815;DHT22;25495;45.948;4.568;2022-07-23T02:10:49;21.00;99.90
39815;DHT22;25495;45.948;4.568;2022-07-23T02:13:17;21.10;99.90
39815;DHT22;25495;45.948;4.568;2022-07-23T02:15:42;21.10;99.90
39815;DHT22;25495;45.948;4.568;2022-07-23T02:18:08;21.10;99.90
39815;DHT22;25495;45.948;4.568;2022-07-23T02:20:34;21.10;99.90
39815;DHT22;25495;45.948;4.568;2022-07-23T02:23:00;21.10;99.90
39815;DHT22;25495;45.948;4.568;2022-07-23T02:25:26;21.10;99.90
39815;DHT22;25495;45.948;4.568;2022-07-23T02:27:51;21.00;99.90
39815;DHT22;25495;45.948;4.568;2022-07-23T02:30:17;21.10;99.90
39815;DHT22;25495;45.948;4.568;2022-07-23T02:32:43;21.10;99.90
39815;DHT22;25495;45.948;4.568;2022-07-23T02:35:09;21.10;99.90
39815;DHT22;25495;45.948;4.568;2022-07-23T02:37:34;21.10;99.90
39815;DHT22;25495;45.948;4.568;2022-07-23T02:40:00;21.00;99.90
39815;DHT22;25495;45.948;4.568;2022-07-23T02:42:26;20.90;99.90
39815;DHT22;25495;45.948;4.568;2022-07-23T02:44:52;21.00;99.90
39815;DHT22;25495;45.948;4.568;2022-07-23T02:47:18;20.90;99.90
39815;DHT22;25495;45.948;4.568;2022-07-23T02:49:43;20.90;99.90
39815;DHT22;25495;45.948;4.568;2022-07-23T02:52:09;21.00;99.90
39815;DHT22;25495;45.948;4.568;2022-07-23T02:54:38;21.10;99.90
39815;DHT22;25495;45.948;4.568;2022-07-23T02:57:04;21.10;99.90
39815;DHT22;25495;45.948;4.568;2022-07-23T02:59:30;21.10;99.90
39815;DHT22;25495;45.948;4.568;2022-07-23T03:01:56;21.10;99.90
39815;DHT22;25495;45.948;4.568;2022-07-23T03:04:22;21.10;99.90
39815;DHT22;25495;45.948;4.568;2022-07-23T03:06:48;21.10;99.90
39815;DHT22;25495;45.948;4.568;2022-07-23T03:09:13;21.10;99.90
39815;DHT22;25495;45.948;4.568;2022-07-23T03:11:39;21.00;99.90
39815;DHT22;25495;45.948;4.568;2022-07-23T03:14:05;21.00;99.90
39815;DHT22;25495;45.948;4.568;2022-07-23T03:16:32;21.00;99.90
39815;DHT22;25495;45.948;4.568;2022-07-23T03:18:57;21.10;99.90
39815;DHT22;25495;45.948;4.568;2022-07-23T03:21:23;21.00;99.90
39815;DHT22;25495;45.948;4.568;2022-07-23T03:23:49;21.00;99.90
39815;DHT22;25495;45.948;4.568;2022-07-23T03:28:41;20.80;99.90
39815;DHT22;25495;45.948;4.568;2022-07-23T03:31:06;20.70;99.90
39815;DHT22;25495;45.948;4.568;2022-07-23T03:33:32;20.80;99.90
39815;DHT22;25495;45.948;4.568;2022-07-23T03:35:58;20.60;99.90
39815;DHT22;25495;45.948;4.568;2022-07-23T03:38:24;20.70;99.90
39815;DHT22;25495;45.948;4.568;2022-07-23T03:40:49;20.70;99.90
39815;DHT22;25495;45.948;4.568;2022-07-23T03:43:15;20.70;99.90
39815;DHT22;25495;45.948;4.568;2022-07-23T03:45:41;20.70;99.90
39815;DHT22;25495;45.948;4.568;2022-07-23T03:48:07;20.80;99.90
39815;DHT22;25495;45.948;4.568;2022-07-23T03:50:33;20.90;99.90
39815;DHT22;25495;45.948;4.568;2022-07-23T03:53:00;20.90;99.90
39815;DHT22;25495;45.948;4.568;2022-07-23T03:55:26;20.80;99.90
39815;DHT22;25495;45.948;4.568;2022-07-23T03:57:51;20.80;99.90
39815;DHT22;25495;45.948;4.568;2022-07-23T04:00:17;20.70;99.90
39815;DHT22;25495;45.948;4.568;2022-07-23T04:02:43;20.80;99.90
39815;DHT22;25495;45.948;4.568;2022-07-23T04:05:09;20.90;99.90
39815;DHT22;25495;45.948;4.568;2022-07-23T04:07:34;21.10;99.90
39815;DHT22;25495;45.948;4.568;2022-07-23T04:10:00;21.10;99.90
39815;DHT22;25495;45.948;4.568;2022-07-23T04:12:26;21.00;99.90
39815;DHT22;25495;45.948;4.568;2022-07-23T04:14:52;21.00;99.90
39815;DHT22;25495;45.948;4.568;2022-07-23T04:17:18;21.00;99.90
39815;DHT22;25495;45.948;4.568;2022-07-23T04:19:43;21.00;99.90
39815;DHT22;25495;45.948;4.568;2022-07-23T04:22:10;21.00;99.90
39815;DHT22;25495;45.948;4.568;2022-07-23T04:24:36;20.90;99.90
39815;DHT22;25495;45.948;4.568;2022-07-23T04:27:03;21.00;99.90
39815;DHT22;25495;45.948;4.568;2022-07-23T04:29:29;21.10;99.90
39815;DHT22;25495;45.948;4.568;2022-07-23T04:31:55;21.00;99.90
39815;DHT22;25495;45.948;4.568;2022-07-23T04:34:21;21.10;99.90
39815;DHT22;25495;45.948;4.568;2022-07-23T04:36:47;21.00;99.90
39815;DHT22;25495;45.948;4.568;2022-07-23T04:39:13;20.90;99.90
39815;DHT22;25495;45.948;4.568;2022-07-23T04:41:39;20.90;99.90
39815;DHT22;25495;45.948;4.568;2022-07-23T04:44:04;20.90;99.90
39815;DHT22;25495;45.948;4.568;2022-07-23T04:46:30;20.80;99.90
39815;DHT22;25495;45.948;4.568;2022-07-23T04:48:56;20.70;99.90
39815;DHT22;25495;45.948;4.568;2022-07-23T04:51:22;20.70;99.90
39815;DHT22;25495;45.948;4.568;2022-07-23T04:53:48;20.70;99.90
39815;DHT22;25495;45.948;4.568;2022-07-23T04:56:14;20.90;99.90
39815;DHT22;25495;45.948;4.568;2022-07-23T04:58:39;20.90;99.90
39815;DHT22;25495;45.948;4.568;2022-07-23T05:01:05;20.90;99.90
39815;DHT22;25495;45.948;4.568;2022-07-23T05:03:31;20.90;99.90
39815;DHT22;25495;45.948;4.568;2022-07-23T05:05:57;21.00;99.90
39815;DHT22;25495;45.948;4.568;2022-07-23T05:08:23;20.90;99.90
39815;DHT22;25495;45.948;4.568;2022-07-23T05:10:48;20.90;99.90
39815;DHT22;25495;45.948;4.568;2022-07-23T05:13:15;20.90;99.90
39815;DHT22;25495;45.948;4.568;2022-07-23T05:15:42;20.90;99.90
39815;DHT22;25495;45.948;4.568;2022-07-23T05:18:08;20.80;99.90
39815;DHT22;25495;45.948;4.568;2022-07-23T05:20:33;20.70;99.90
39815;DHT22;25495;45.948;4.568;2022-07-23T05:22:59;20.80;99.90
39815;DHT22;25495;45.948;4.568;2022-07-23T05:25:25;20.80;99.90
39815;DHT22;25495;45.948;4.568;2022-07-23T05:27:51;20.80;99.90
39815;DHT22;25495;45.948;4.568;2022-07-23T05:30:17;20.80;99.90
39815;DHT22;25495;45.948;4.568;2022-07-23T05:32:42;20.80;99.90
39815;DHT22;25495;45.948;4.568;2022-07-23T05:35:08;20.80;99.90
39815;DHT22;25495;45.948;4.568;2022-07-23T05:37:34;20.90;99.90
39815;DHT22;25495;45.948;4.568;2022-07-23T05:40:05;20.80;99.90
39815;DHT22;25495;45.948;4.568;2022-07-23T05:42:33;20.80;99.90
39815;DHT22;25495;45.948;4.568;2022-07-23T05:44:59;20.80;99.90
39815;DHT22;25495;45.948;4.568;2022-07-23T05:47:25;20.80;99.90
39815;DHT22;25495;45.948;4.568;2022-07-23T05:49:50;20.80;99.90
39815;DHT22;25495;45.948;4.568;2022-07-23T05:52:16;20.90;99.90
39815;DHT22;25495;45.948;4.568;2022-07-23T05:54:42;20.90;99.90
39815;DHT22;25495;45.948;4.568;2022-07-23T05:57:07;20.90;99.90
39815;DHT22;25495;45.948;4.568;2022-07-23T05:59:34;21.00;99.90
39815;DHT22;25495;45.948;4.568;2022-07-23T06:01:59;21.00;99.90
39815;DHT22;25495;45.948;4.568;2022-07-23T06:04:25;21.00;99.90
39815;DHT22;25495;45.948;4.568;2022-07-23T06:06:51;21.00;99.90
39815;DHT22;25495;45.948;4.568;2022-07-23T06:09:17;20.90;99.90
39815;DHT22;25495;45.948;4.568;2022-07-23T06:11:43;21.00;99.90
39815;DHT22;25495;45.948;4.568;2022-07-23T06:14:09;20.90;99.90
39815;DHT22;25495;45.948;4.568;2022-07-23T06:16:35;21.00;99.90
39815;DHT22;25495;45.948;4.568;2022-07-23T06:19:01;21.10;99.90
39815;DHT22;25495;45.948;4.568;2022-07-23T06:21:26;21.10;99.90
39815;DHT22;25495;45.948;4.568;2022-07-23T06:23:52;21.10;99.90
39815;DHT22;25495;45.948;4.568;2022-07-23T06:26:18;21.00;99.90
39815;DHT22;25495;45.948;4.568;2022-07-23T06:28:43;21.00;99.90
39815;DHT22;25495;45.948;4.568;2022-07-23T06:31:09;21.00;99.90
39815;DHT22;25495;45.948;4.568;2022-07-23T06:33:35;21.00;99.90
39815;DHT22;25495;45.948;4.568;2022-07-23T06:36:01;21.00;99.90
39815;DHT22;25495;45.948;4.568;2022-07-23T06:38:26;21.00;99.90
39815;DHT22;25495;45.948;4.568;2022-07-23T06:40:52;21.00;99.90
39815;DHT22;25495;45.948;4.568;2022-07-23T06:43:18;21.00;99.90
39815;DHT22;25495;45.948;4.568;2022-07-23T06:45:44;20.90;99.90
39815;DHT22;25495;45.948;4.568;2022-07-23T06:48:09;20.90;99.90
39815;DHT22;25495;45.948;4.568;2022-07-23T06:50:35;21.00;99.90
39815;DHT22;25495;45.948;4.568;2022-07-23T06:53:01;20.90;99.90
39815;DHT22;25495;45.948;4.568;2022-07-23T06:55:26;20.90;99.90
39815;DHT22;25495;45.948;4.568;2022-07-23T06:57:52;20.90;99.90
39815;DHT22;25495;45.948;4.568;2022-07-23T07:00:18;20.90;99.90
39815;DHT22;25495;45.948;4.568;2022-07-23T07:02:44;21.00;99.90
39815;DHT22;25495;45.948;4.568;2022-07-23T07:05:10;21.10;99.90
39815;DHT22;25495;45.948;4.568;2022-07-23T07:07:35;20.90;99.90
39815;DHT22;25495;45.948;4.568;2022-07-23T07:10:03;20.90;99.90
39815;DHT22;25495;45.948;4.568;2022-07-23T07:12:28;21.00;99.90
39815;DHT22;25495;45.948;4.568;2022-07-23T07:14:54;21.20;99.90
39815;DHT22;25495;45.948;4.568;2022-07-23T07:17:20;21.30;99.90
39815;DHT22;25495;45.948;4.568;2022-07-23T07:19:46;21.40;99.90
39815;DHT22;25495;45.948;4.568;2022-07-23T07:22:11;21.50;99.90
39815;DHT22;25495;45.948;4.568;2022-07-23T07:24:37;21.50;99.90
39815;DHT22;25495;45.948;4.568;2022-07-23T07:27:03;21.50;99.90
39815;DHT22;25495;45.948;4.568;2022-07-23T07:29:29;21.60;99.90
39815;DHT22;25495;45.948;4.568;2022-07-23T07:31:55;21.60;99.90
39815;DHT22;25495;45.948;4.568;2022-07-23T07:34:20;21.70;99.90
39815;DHT22;25495;45.948;4.568;2022-07-23T07:36:46;21.90;99.90
39815;DHT22;25495;45.948;4.568;2022-07-23T07:39:12;22.10;99.90
39815;DHT22;25495;45.948;4.568;2022-07-23T07:41:37;22.20;99.90
39815;DHT22;25495;45.948;4.568;2022-07-23T07:44:03;22.20;99.90
39815;DHT22;25495;45.948;4.568;2022-07-23T07:46:29;22.30;99.90
39815;DHT22;25495;45.948;4.568;2022-07-23T07:48:55;22.40;99.90
39815;DHT22;25495;45.948;4.568;2022-07-23T07:51:21;22.60;99.90
39815;DHT22;25495;45.948;4.568;2022-07-23T07:53:47;22.70;99.90
39815;DHT22;25495;45.948;4.568;2022-07-23T07:56:13;23.00;99.90
39815;DHT22;25495;45.948;4.568;2022-07-23T07:58:39;23.10;99.90
39815;DHT22;25495;45.948;4.568;2022-07-23T08:01:05;23.00;99.90
39815;DHT22;25495;45.948;4.568;2022-07-23T08:03:30;23.30;99.90
39815;DHT22;25495;45.948;4.568;2022-07-23T08:05:56;23.20;99.90
39815;DHT22;25495;45.948;4.568;2022-07-23T08:10:48;23.80;99.90
39815;DHT22;25495;45.948;4.568;2022-07-23T08:13:15;24.10;99.90
39815;DHT22;25495;45.948;4.568;2022-07-23T08:15:41;23.90;99.90
39815;DHT22;25495;45.948;4.568;2022-07-23T08:18:07;23.90;99.90
39815;DHT22;25495;45.948;4.568;2022-07-23T08:20:33;23.60;99.90
39815;DHT22;25495;45.948;4.568;2022-07-23T08:23:04;24.30;99.90
39815;DHT22;25495;45.948;4.568;2022-07-23T08:27:58;24.90;99.90
39815;DHT22;25495;45.948;4.568;2022-07-23T08:30:25;25.40;99.90
39815;DHT22;25495;45.948;4.568;2022-07-23T08:35:30;24.80;99.90
39815;DHT22;25495;45.948;4.568;2022-07-23T08:37:58;24.70;99.90
39815;DHT22;25495;45.948;4.568;2022-07-23T08:40:27;24.50;99.90
39815;DHT22;25495;45.948;4.568;2022-07-23T08:42:53;24.60;99.90
39815;DHT22;25495;45.948;4.568;2022-07-23T08:45:21;24.70;99.90
39815;DHT22;25495;45.948;4.568;2022-07-23T08:47:51;24.30;99.90
39815;DHT22;25495;45.948;4.568;2022-07-23T08:50:17;24.60;99.90
39815;DHT22;25495;45.948;4.568;2022-07-23T08:52:43;24.80;99.90
39815;DHT22;25495;45.948;4.568;2022-07-23T08:55:09;24.30;99.90
39815;DHT22;25495;45.948;4.568;2022-07-23T08:57:35;24.30;99.90
39815;DHT22;25495;45.948;4.568;2022-07-23T09:00:01;24.00;99.90
39815;DHT22;25495;45.948;4.568;2022-07-23T09:02:27;24.30;99.90
39815;DHT22;25495;45.948;4.568;2022-07-23T09:04:53;24.40;99.90
39815;DHT22;25495;45.948;4.568;2022-07-23T09:07:19;24.90;99.90
39815;DHT22;25495;45.948;4.568;2022-07-23T09:09:44;24.90;99.90
39815;DHT22;25495;45.948;4.568;2022-07-23T09:12:10;24.20;99.90
39815;DHT22;25495;45.948;4.568;2022-07-23T09:14:43;24.60;99.90
39815;DHT22;25495;45.948;4.568;2022-07-23T09:17:15;25.00;99.90
39815;DHT22;25495;45.948;4.568;2022-07-23T09:19:42;25.70;99.90
39815;DHT22;25495;45.948;4.568;2022-07-23T09:22:24;25.20;99.90
39815;DHT22;25495;45.948;4.568;2022-07-23T09:25:12;25.30;99.90
39815;DHT22;25495;45.948;4.568;2022-07-23T09:27:59;25.50;99.90
39815;DHT22;25495;45.948;4.568;2022-07-23T09:30:30;25.50;99.90
39815;DHT22;25495;45.948;4.568;2022-07-23T09:33:13;25.90;99.90
39815;DHT22;25495;45.948;4.568;2022-07-23T09:35:51;25.80;99.90
39815;DHT22;25495;45.948;4.568;2022-07-23T09:38:18;26.40;99.90
39815;DHT22;25495;45.948;4.568;2022-07-23T09:40:45;25.70;99.90
39815;DHT22;25495;45.948;4.568;2022-07-23T09:43:25;25.70;99.90
39815;DHT22;25495;45.948;4.568;2022-07-23T09:45:52;25.60;99.90
39815;DHT22;25495;45.948;4.568;2022-07-23T09:48:18;25.20;99.90
39815;DHT22;25495;45.948;4.568;2022-07-23T09:50:44;25.20;99.90
39815;DHT22;25495;45.948;4.568;2022-07-23T09:53:24;25.30;99.90
39815;DHT22;25495;45.948;4.568;2022-07-23T09:55:51;25.30;99.90
39815;DHT22;25495;45.948;4.568;2022-07-23T09:58:21;25.90;99.90
39815;DHT22;25495;45.948;4.568;2022-07-23T10:00:47;26.10;99.90
39815;DHT22;25495;45.948;4.568;2022-07-23T10:03:15;26.20;99.90
39815;DHT22;25495;45.948;4.568;2022-07-23T10:05:44;26.70;99.90
39815;DHT22;25495;45.948;4.568;2022-07-23T10:08:11;27.20;99.90
39815;DHT22;25495;45.948;4.568;2022-07-23T10:10:39;27.30;99.90
39815;DHT22;25495;45.948;4.568;2022-07-23T10:13:05;26.40;99.40
39815;DHT22;25495;45.948;4.568;2022-07-23T10:15:50;26.60;99.90
39815;DHT22;25495;45.948;4.568;2022-07-23T10:18:16;26.60;99.90
39815;DHT22;25495;45.948;4.568;2022-07-23T10:20:42;26.60;99.90
39815;DHT22;25495;45.948;4.568;2022-07-23T10:23:28;26.10;99.70
39815;DHT22;25495;45.948;4.568;2022-07-23T10:26:09;25.70;99.70
39815;DHT22;25495;45.948;4.568;2022-07-23T10:28:45;25.60;99.90
39815;DHT22;25495;45.948;4.568;2022-07-23T10:31:38;25.70;99.90
39815;DHT22;25495;45.948;4.568;2022-07-23T10:34:44;26.30;99.70
39815;DHT22;25495;45.948;4.568;2022-07-23T10:37:26;26.20;99.10
39815;DHT22;25495;45.948;4.568;2022-07-23T10:40:14;26.80;99.90
39815;DHT22;25495;45.948;4.568;2022-07-23T10:42:40;27.00;98.70
39815;DHT22;25495;45.948;4.568;2022-07-23T10:47:55;27.40;98.40
39815;DHT22;25495;45.948;4.568;2022-07-23T10:50:26;26.90;99.60
39815;DHT22;25495;45.948;4.568;2022-07-23T10:53:10;26.40;98.20
39815;DHT22;25495;45.948;4.568;2022-07-23T10:55:44;26.60;98.00
39815;DHT22;25495;45.948;4.568;2022-07-23T10:58:10;26.40;99.00
39815;DHT22;25495;45.948;4.568;2022-07-23T11:00:37;26.40;98.70
39815;DHT22;25495;45.948;4.568;2022-07-23T11:03:05;26.50;98.10
39815;DHT22;25495;45.948;4.568;2022-07-23T11:05:49;26.50;98.60
39815;DHT22;25495;45.948;4.568;2022-07-23T11:08:18;26.30;97.90
39815;DHT22;25495;45.948;4.568;2022-07-23T11:10:55;26.50;98.10
39815;DHT22;25495;45.948;4.568;2022-07-23T11:24:00;27.20;98.30
39815;DHT22;25495;45.948;4.568;2022-07-23T11:31:54;26.60;98.60
39815;DHT22;25495;45.948;4.568;2022-07-23T11:36:54;26.40;99.10
39815;DHT22;25495;45.948;4.568;2022-07-23T11:39:21;26.70;97.60
39815;DHT22;25495;45.948;4.568;2022-07-23T11:41:55;26.90;97.30
39815;DHT22;25495;45.948;4.568;2022-07-23T11:44:28;26.70;96.50
39815;DHT22;25495;45.948;4.568;2022-07-23T11:46:59;26.80;97.80
39815;DHT22;25495;45.948;4.568;2022-07-23T11:49:26;26.80;96.40
39815;DHT22;25495;45.948;4.568;2022-07-23T11:52:14;26.50;97.20
39815;DHT22;25495;45.948;4.568;2022-07-23T11:57:15;26.40;96.40
39815;DHT22;25495;45.948;4.568;2022-07-23T11:59:43;25.90;96.40
39815;DHT22;25495;45.948;4.568;2022-07-23T12:02:11;26.40;97.60
39815;DHT22;25495;45.948;4.568;2022-07-23T12:04:45;26.20;97.20
39815;DHT22;25495;45.948;4.568;2022-07-23T12:10:02;26.60;96.80
39815;DHT22;25495;45.948;4.568;2022-07-23T12:12:35;27.00;96.40
39815;DHT22;25495;45.948;4.568;2022-07-23T12:15:01;27.10;95.90
39815;DHT22;25495;45.948;4.568;2022-07-23T12:17:35;27.00;95.40
39815;DHT22;25495;45.948;4.568;2022-07-23T12:20:04;27.30;95.90
39815;DHT22;25495;45.948;4.568;2022-07-23T12:22:42;27.60;96.00
39815;DHT22;25495;45.948;4.568;2022-07-23T12:25:11;27.50;94.90
39815;DHT22;25495;45.948;4.568;2022-07-23T12:27:37;27.20;96.10
39815;DHT22;25495;45.948;4.568;2022-07-23T12:30:23;27.50;95.00
39815;DHT22;25495;45.948;4.568;2022-07-23T12:32:52;27.70;96.00
39815;DHT22;25495;45.948;4.568;2022-07-23T12:35:18;27.20;94.40
39815;DHT22;25495;45.948;4.568;2022-07-23T12:37:47;26.70;95.30
39815;DHT22;25495;45.948;4.568;2022-07-23T12:42:59;27.40;94.70
39815;DHT22;25495;45.948;4.568;2022-07-23T12:45:27;26.90;94.80
39815;DHT22;25495;45.948;4.568;2022-07-23T12:48:04;26.40;95.50
39815;DHT22;25495;45.948;4.568;2022-07-23T12:50:57;26.50;95.60
39815;DHT22;25495;45.948;4.568;2022-07-23T12:53:25;26.50;95.40
39815;DHT22;25495;45.948;4.568;2022-07-23T12:55:58;27.10;95.90
39815;DHT22;25495;45.948;4.568;2022-07-23T12:58:25;27.10;95.00
39815;DHT22;25495;45.948;4.568;2022-07-23T13:03:40;27.50;95.30
39815;DHT22;25495;45.948;4.568;2022-07-23T13:06:09;27.90;94.20
39815;DHT22;25495;45.948;4.568;2022-07-23T13:11:03;27.80;93.40
39815;DHT22;25495;45.948;4.568;2022-07-23T13:13:31;27.90;93.80
39815;DHT22;25495;45.948;4.568;2022-07-23T13:15:58;27.40;93.30
39815;DHT22;25495;45.948;4.568;2022-07-23T13:18:25;27.50;94.40
39815;DHT22;25495;45.948;4.568;2022-07-23T13:20:53;27.60;93.90
39815;DHT22;25495;45.948;4.568;2022-07-23T13:23:20;27.70;94.20
39815;DHT22;25495;45.948;4.568;2022-07-23T13:25:46;27.60;93.90
39815;DHT22;25495;45.948;4.568;2022-07-23T13:28:13;27.10;93.70
39815;DHT22;25495;45.948;4.568;2022-07-23T13:30:40;27.40;94.10
39815;DHT22;25495;45.948;4.568;2022-07-23T13:33:06;27.80;94.30
39815;DHT22;25495;45.948;4.568;2022-07-23T13:35:34;28.00;94.10
39815;DHT22;25495;45.948;4.568;2022-07-23T13:38:00;27.50;92.90
39815;DHT22;25495;45.948;4.568;2022-07-23T13:40:26;27.00;93.20
39815;DHT22;25495;45.948;4.568;2022-07-23T13:42:52;27.10;93.60
39815;DHT22;25495;45.948;4.568;2022-07-23T13:45:18;26.80;94.60
39815;DHT22;25495;45.948;4.568;2022-07-23T13:47:44;26.70;94.50
39815;DHT22;25495;45.948;4.568;2022-07-23T13:50:10;27.00;93.10
39815;DHT22;25495;45.948;4.568;2022-07-23T13:52:36;26.60;93.60
39815;DHT22;25495;45.948;4.568;2022-07-23T13:55:04;27.00;93.70
39815;DHT22;25495;45.948;4.568;2022-07-23T13:57:31;27.50;93.40
39815;DHT22;25495;45.948;4.568;2022-07-23T13:59:57;27.70;92.90
39815;DHT22;25495;45.948;4.568;2022-07-23T14:02:24;27.20;92.80
39815;DHT22;25495;45.948;4.568;2022-07-23T14:04:51;27.40;92.70
39815;DHT22;25495;45.948;4.568;2022-07-23T14:07:17;27.20;93.80
39815;DHT22;25495;45.948;4.568;2022-07-23T14:09:44;27.70;92.40
39815;DHT22;25495;45.948;4.568;2022-07-23T14:12:09;27.90;92.70
39815;DHT22;25495;45.948;4.568;2022-07-23T14:14:35;26.90;92.10
39815;DHT22;25495;45.948;4.568;2022-07-23T14:17:01;26.60;93.00
39815;DHT22;25495;45.948;4.568;2022-07-23T14:19:27;26.80;92.50
39815;DHT22;25495;45.948;4.568;2022-07-23T14:21:53;26.60;92.50
39815;DHT22;25495;45.948;4.568;2022-07-23T14:24:19;26.60;92.50
39815;DHT22;25495;45.948;4.568;2022-07-23T14:26:44;26.80;92.90
39815;DHT22;25495;45.948;4.568;2022-07-23T14:29:12;27.30;92.00
39815;DHT22;25495;45.948;4.568;2022-07-23T14:31:37;27.50;91.60
39815;DHT22;25495;45.948;4.568;2022-07-23T14:34:03;27.70;91.40
39815;DHT22;25495;45.948;4.568;2022-07-23T14:36:29;27.80;90.70
39815;DHT22;25495;45.948;4.568;2022-07-23T14:38:55;26.70;91.80
39815;DHT22;25495;45.948;4.568;2022-07-23T14:41:21;26.50;91.60
39815;DHT22;25495;45.948;4.568;2022-07-23T14:43:47;26.50;92.00
39815;DHT22;25495;45.948;4.568;2022-07-23T14:46:13;26.60;91.70
39815;DHT22;25495;45.948;4.568;2022-07-23T14:48:39;26.20;91.90
39815;DHT22;25495;45.948;4.568;2022-07-23T14:51:05;26.10;92.10
39815;DHT22;25495;45.948;4.568;2022-07-23T14:53:30;26.50;91.90
39815;DHT22;25495;45.948;4.568;2022-07-23T14:55:56;27.10;91.10
39815;DHT22;25495;45.948;4.568;2022-07-23T14:58:25;27.20;90.60
39815;DHT22;25495;45.948;4.568;2022-07-23T15:00:51;27.10;91.20
39815;DHT22;25495;45.948;4.568;2022-07-23T15:03:17;27.30;90.50
39815;DHT22;25495;45.948;4.568;2022-07-23T15:05:43;27.60;90.70
39815;DHT22;25495;45.948;4.568;2022-07-23T15:08:09;27.10;90.40
39815;DHT22;25495;45.948;4.568;2022-07-23T15:10:34;26.90;91.50
39815;DHT22;25495;45.948;4.568;2022-07-23T15:13:00;27.60;91.70
39815;DHT22;25495;45.948;4.568;2022-07-23T15:15:26;27.80;90.00
39815;DHT22;25495;45.948;4.568;2022-07-23T15:17:52;27.50;89.30
39815;DHT22;25495;45.948;4.568;2022-07-23T15:20:17;27.70;88.60
39815;DHT22;25495;45.948;4.568;2022-07-23T15:22:43;27.70;87.20
39815;DHT22;25495;45.948;4.568;2022-07-23T15:25:11;27.80;88.30
39815;DHT22;25495;45.948;4.568;2022-07-23T15:27:37;27.80;87.40
39815;DHT22;25495;45.948;4.568;2022-07-23T15:30:05;27.90;86.40
39815;DHT22;25495;45.948;4.568;2022-07-23T15:32:31;27.90;85.40
39815;DHT22;25495;45.948;4.568;2022-07-23T15:34:57;27.60;85.10
39815;DHT22;25495;45.948;4.568;2022-07-23T15:37:23;27.80;86.80
39815;DHT22;25495;45.948;4.568;2022-07-23T15:39:49;27.90;86.00
39815;DHT22;25495;45.948;4.568;2022-07-23T15:42:15;28.00;87.20
39815;DHT22;25495;45.948;4.568;2022-07-23T15:44:42;27.20;86.50
39815;DHT22;25495;45.948;4.568;2022-07-23T15:47:15;27.30;86.30
39815;DHT22;25495;45.948;4.568;2022-07-23T15:49:41;27.20;86.40
39815;DHT22;25495;45.948;4.568;2022-07-23T15:52:08;27.20;86.20
39815;DHT22;25495;45.948;4.568;2022-07-23T15:54:38;27.30;85.40
39815;DHT22;25495;45.948;4.568;2022-07-23T15:57:04;27.20;86.50
39815;DHT22;25495;45.948;4.568;2022-07-23T15:59:30;27.60;85.50
39815;DHT22;25495;45.948;4.568;2022-07-23T16:01:58;27.60;85.50
39815;DHT22;25495;45.948;4.568;2022-07-23T16:04:25;27.30;84.90
39815;DHT22;25495;45.948;4.568;2022-07-23T16:06:51;27.20;86.30
39815;DHT22;25495;45.948;4.568;2022-07-23T16:09:16;27.30;85.20
39815;DHT22;25495;45.948;4.568;2022-07-23T16:11:43;27.50;85.10
39815;DHT22;25495;45.948;4.568;2022-07-23T16:14:09;27.50;85.90
39815;DHT22;25495;45.948;4.568;2022-07-23T16:16:34;27.50;85.20
39815;DHT22;25495;45.948;4.568;2022-07-23T16:19:01;27.50;85.00